createdAt,value
2023-04-11T00:00:31.473Z,21.67
2023-04-11T00:03:00.084Z,23.35
2023-04-11T00:05:28.509Z,23.23
2023-04-11T00:07:55.885Z,23.85
2023-04-11T00:10:23.578Z,22.67
2023-04-11T00:12:51.143Z,22.80
2023-04-11T00:15:20.042Z,30.10
2023-04-11T00:17:49.103Z,33.20
2023-04-11T00:20:16.868Z,32.33
2023-04-11T00:22:44.286Z,31.50
2023-04-11T00:25:12.242Z,29.10
2023-04-11T00:27:39.833Z,30.10
2023-04-11T00:30:08.040Z,27.13
2023-04-11T00:32:35.813Z,25.17
2023-04-11T00:35:03.365Z,24.48
2023-04-11T00:37:35.926Z,24.58
2023-04-11T00:40:05.739Z,24.30
2023-04-11T00:42:33.716Z,24.50
2023-04-11T00:45:01.192Z,25.55
2023-04-11T00:47:29.458Z,23.83
2023-04-11T00:49:56.839Z,22.37
2023-04-11T00:52:24.255Z,25.15
2023-04-11T00:54:52.043Z,21.98
2023-04-11T00:57:19.425Z,24.12
2023-04-11T00:59:51.059Z,23.75
2023-04-11T01:02:18.936Z,26.90
2023-04-11T01:04:46.563Z,24.30
2023-04-11T01:07:14.298Z,23.35
2023-04-11T01:09:42.239Z,23.35
2023-04-11T01:12:10.734Z,24.98
2023-04-11T01:14:38.490Z,25.45
2023-04-11T01:17:07.877Z,23.42
2023-04-11T01:19:35.616Z,21.92
2023-04-11T01:22:03.342Z,23.75
2023-04-11T01:24:31.684Z,25.30
2023-04-11T01:26:59.356Z,25.33
2023-04-11T01:29:26.728Z,25.45
2023-04-11T01:31:54.565Z,23.02
2023-04-11T01:34:22.685Z,22.45
2023-04-11T01:36:50.234Z,23.87
2023-04-11T01:39:17.891Z,24.08
2023-04-11T01:41:46.075Z,24.70
2023-04-11T01:44:13.705Z,23.05
2023-04-11T01:46:43.091Z,24.52
2023-04-11T01:49:10.547Z,23.23
2023-04-11T01:51:37.958Z,25.73
2023-04-11T01:54:05.820Z,24.85
2023-04-11T01:56:33.258Z,23.60
2023-04-11T01:59:01.604Z,23.17
2023-04-11T02:01:29.387Z,23.15
2023-04-11T02:03:58.229Z,23.12
2023-04-11T02:06:27.460Z,24.52
2023-04-11T02:08:55.306Z,23.38
2023-04-11T02:11:23.163Z,23.92
2023-04-11T02:13:51.772Z,24.90
2023-04-11T02:16:20.729Z,23.02
2023-04-11T02:18:48.859Z,25.77
2023-04-11T02:21:16.287Z,21.37
2023-04-11T02:23:43.773Z,22.75
2023-04-11T02:26:13.097Z,24.10
2023-04-11T02:28:40.488Z,24.85
2023-04-11T02:31:08.088Z,23.60
2023-04-11T02:33:35.909Z,24.73
2023-04-11T02:36:03.505Z,25.42
2023-04-11T02:38:30.981Z,26.55
2023-04-11T02:41:00.177Z,29.42
2023-04-11T02:43:27.594Z,29.70
2023-04-11T02:46:01.973Z,25.67
2023-04-11T02:48:37.737Z,24.05
2023-04-11T02:51:05.693Z,27.55
2023-04-11T02:53:33.197Z,25.75
2023-04-11T02:56:01.401Z,25.35
2023-04-11T02:58:29.056Z,25.00
2023-04-11T03:00:57.456Z,25.17
2023-04-11T03:03:26.384Z,21.98
2023-04-11T03:05:54.326Z,25.17
2023-04-11T03:08:22.136Z,24.65
2023-04-11T03:10:50.184Z,23.52
2023-04-11T03:13:17.685Z,24.92
2023-04-11T03:15:45.429Z,23.23
2023-04-11T03:18:13.471Z,24.20
2023-04-11T03:20:41.730Z,23.20
2023-04-11T03:23:10.663Z,23.25
2023-04-11T03:25:40.581Z,25.55
2023-04-11T03:28:08.069Z,23.90
2023-04-11T03:30:35.502Z,27.58
2023-04-11T03:33:03.390Z,26.12
2023-04-11T03:35:31.362Z,23.87
2023-04-11T03:37:58.982Z,26.17
2023-04-11T03:40:26.743Z,30.83
2023-04-11T03:42:54.891Z,26.87
2023-04-11T03:45:22.409Z,27.23
2023-04-11T03:47:52.809Z,27.00
2023-04-11T03:50:21.801Z,29.17
2023-04-11T03:52:50.495Z,26.98
2023-04-11T03:55:18.516Z,28.90
2023-04-11T03:57:46.306Z,29.75
2023-04-11T04:00:14.844Z,26.70
2023-04-11T04:02:42.641Z,25.27
2023-04-11T04:05:11.583Z,25.42
2023-04-11T04:07:39.972Z,28.70
2023-04-11T04:10:08.182Z,27.37
2023-04-11T04:12:36.016Z,27.02
2023-04-11T04:15:04.245Z,26.75
2023-04-11T04:17:31.867Z,27.80
2023-04-11T04:19:59.918Z,26.45
2023-04-11T04:22:29.757Z,26.95
2023-04-11T04:25:00.418Z,26.70
2023-04-11T04:27:28.458Z,26.15
2023-04-11T04:29:59.987Z,27.25
2023-04-11T04:32:32.654Z,28.23
2023-04-11T04:35:01.513Z,34.80
2023-04-11T04:37:29.176Z,36.83
2023-04-11T04:40:02.154Z,34.20
2023-04-11T04:42:31.331Z,42.10
2023-04-11T04:45:00.507Z,41.03
2023-04-11T04:47:33.293Z,39.90
2023-04-11T04:50:01.387Z,30.27
2023-04-11T04:52:29.482Z,25.90
2023-04-11T04:54:58.175Z,23.12
2023-04-11T04:57:27.736Z,21.10
2023-04-11T04:59:56.787Z,26.05
2023-04-11T05:02:26.591Z,20.55
2023-04-11T05:04:55.453Z,22.87
2023-04-11T05:07:23.554Z,19.45
2023-04-11T05:09:51.214Z,21.33
2023-04-11T05:12:21.420Z,20.33
2023-04-11T05:14:48.842Z,22.02
2023-04-11T05:17:16.373Z,19.77
2023-04-11T05:19:44.228Z,20.15
2023-04-11T05:22:11.728Z,21.58
2023-04-11T05:24:39.599Z,19.65
2023-04-11T05:27:07.507Z,21.33
2023-04-11T05:29:35.312Z,21.33
2023-04-11T05:32:03.045Z,19.25
2023-04-11T05:34:32.350Z,17.35
2023-04-11T05:36:59.998Z,18.42
2023-04-11T05:39:27.455Z,17.73
2023-04-11T05:41:57.112Z,15.85
2023-04-11T05:44:24.525Z,18.73
2023-04-11T05:46:51.882Z,20.65
2023-04-11T05:49:19.614Z,20.23
2023-04-11T05:51:46.974Z,19.00
2023-04-11T05:54:20.959Z,19.98
2023-04-11T05:56:48.658Z,22.62
2023-04-11T05:59:17.014Z,19.70
2023-04-11T06:01:46.176Z,23.75
2023-04-11T06:04:14.026Z,18.73
2023-04-11T06:06:42.899Z,18.58
2023-04-11T06:09:10.829Z,24.00
2023-04-11T06:11:38.539Z,18.20
2023-04-11T06:14:05.974Z,20.15
2023-04-11T06:16:36.668Z,20.95
2023-04-11T06:19:05.089Z,18.95
2023-04-11T06:21:32.886Z,19.33
2023-04-11T06:24:09.244Z,21.23
2023-04-11T06:26:37.373Z,18.55
2023-04-11T06:29:05.750Z,22.45
2023-04-11T06:31:33.880Z,20.27
2023-04-11T06:34:01.923Z,21.62
2023-04-11T06:36:30.277Z,14.73
2023-04-11T06:38:57.691Z,21.10
2023-04-11T06:41:25.466Z,23.05
2023-04-11T06:43:53.023Z,21.45
2023-04-11T06:46:20.429Z,21.05
2023-04-11T06:48:48.094Z,19.98
2023-04-11T06:51:15.517Z,22.98
2023-04-11T06:53:42.896Z,21.77
2023-04-11T06:56:10.806Z,22.48
2023-04-11T06:58:38.227Z,21.50
2023-04-11T07:01:06.302Z,23.92
2023-04-11T07:03:34.131Z,20.75
2023-04-11T07:06:01.711Z,22.15
2023-04-11T07:08:29.465Z,23.33
2023-04-11T07:10:57.176Z,21.33
2023-04-11T07:13:24.890Z,19.50
2023-04-11T07:15:52.397Z,18.12
2023-04-11T07:18:20.312Z,16.30
2023-04-11T07:20:48.642Z,15.68
2023-04-11T07:23:16.095Z,15.27
2023-04-11T07:25:45.024Z,14.38
2023-04-11T07:28:12.992Z,15.80
2023-04-11T07:30:41.442Z,15.30
2023-04-11T07:33:09.361Z,15.25
2023-04-11T07:35:38.407Z,17.87
2023-04-11T07:38:06.308Z,17.05
2023-04-11T07:40:34.013Z,15.85
2023-04-11T07:43:01.874Z,18.45
2023-04-11T07:45:29.465Z,21.45
2023-04-11T07:47:57.137Z,21.08
2023-04-11T07:50:24.589Z,17.90
2023-04-11T07:52:52.095Z,19.35
2023-04-11T07:55:19.764Z,19.02
2023-04-11T07:57:47.197Z,15.52
2023-04-11T08:00:22.175Z,15.88
2023-04-11T08:02:51.087Z,15.13
2023-04-11T08:05:19.246Z,15.02
2023-04-11T08:07:47.018Z,14.75
2023-04-11T08:10:14.823Z,16.42
2023-04-11T08:12:42.253Z,17.25
2023-04-11T08:15:09.981Z,16.52
2023-04-11T08:17:38.396Z,18.12
2023-04-11T08:20:09.163Z,16.20
2023-04-11T08:22:36.622Z,17.40
2023-04-11T08:25:04.935Z,16.30
2023-04-11T08:27:32.346Z,20.17
2023-04-11T08:29:59.929Z,17.25
2023-04-11T08:32:27.698Z,16.70
2023-04-11T08:34:55.250Z,17.83
2023-04-11T08:37:22.633Z,22.42
2023-04-11T08:39:50.430Z,17.40
2023-04-11T08:42:28.591Z,19.12
2023-04-11T08:44:58.702Z,17.70
2023-04-11T08:47:26.530Z,20.10
2023-04-11T08:49:54.388Z,21.00
2023-04-11T08:52:23.359Z,20.60
2023-04-11T08:54:57.354Z,21.60
2023-04-11T08:57:31.499Z,23.25
2023-04-11T09:00:00.529Z,22.37
2023-04-11T09:02:28.344Z,20.67
2023-04-11T09:04:57.720Z,23.85
2023-04-11T09:07:25.456Z,24.70
2023-04-11T09:09:53.281Z,23.77
2023-04-11T09:12:29.587Z,22.20
2023-04-11T09:14:57.546Z,24.67
2023-04-11T09:17:25.084Z,25.12
2023-04-11T09:19:52.499Z,24.05
2023-04-11T09:22:20.425Z,23.02
2023-04-11T09:25:02.114Z,24.17
2023-04-11T09:27:29.864Z,26.37
2023-04-11T09:29:57.235Z,24.00
2023-04-11T09:32:34.675Z,24.02
2023-04-11T09:35:25.197Z,23.30
2023-04-11T09:37:57.491Z,25.02
2023-04-11T09:40:26.888Z,20.90
2023-04-11T09:43:02.405Z,20.85
2023-04-11T09:45:38.162Z,21.70
2023-04-11T09:48:08.998Z,18.05
2023-04-11T09:50:38.542Z,19.73
2023-04-11T09:53:11.039Z,19.42
2023-04-11T09:55:39.629Z,18.45
2023-04-11T09:58:07.907Z,19.15
2023-04-11T10:00:36.436Z,18.37
2023-04-11T10:03:04.223Z,20.50
2023-04-11T10:05:31.921Z,17.75
2023-04-11T10:08:05.654Z,18.00
2023-04-11T10:10:33.497Z,18.37
2023-04-11T10:13:00.958Z,19.42
2023-04-11T10:15:29.021Z,21.80
2023-04-11T10:18:13.606Z,22.17
2023-04-11T10:20:50.530Z,23.58
2023-04-11T10:23:18.244Z,24.12
2023-04-11T10:25:50.503Z,25.15
2023-04-11T10:28:36.026Z,23.65
2023-04-11T10:31:13.202Z,21.70
2023-04-11T10:34:16.787Z,22.62
2023-04-11T10:37:07.738Z,18.60
2023-04-11T10:39:53.774Z,20.75
2023-04-11T10:42:27.943Z,19.75
2023-04-11T10:45:21.937Z,18.48
2023-04-11T10:47:58.611Z,21.33
2023-04-11T10:50:26.430Z,23.10
2023-04-11T10:52:58.020Z,21.20
2023-04-11T10:55:27.196Z,20.60
2023-04-11T10:58:08.721Z,21.42
2023-04-11T11:00:51.667Z,17.73
2023-04-11T11:03:20.101Z,16.65
2023-04-11T11:05:57.365Z,17.70
2023-04-11T11:08:34.562Z,16.33
2023-04-11T11:11:06.927Z,15.40
2023-04-11T11:13:51.793Z,17.23
2023-04-11T11:16:22.035Z,12.90
2023-04-11T11:18:54.533Z,14.55
2023-04-11T11:21:28.900Z,11.48
2023-04-11T11:24:01.002Z,14.27
2023-04-11T11:26:43.362Z,13.60
2023-04-11T11:29:11.339Z,14.98
2023-04-11T11:31:41.782Z,14.90
2023-04-11T11:34:22.659Z,13.15
2023-04-11T11:36:51.176Z,16.12
2023-04-11T11:39:20.372Z,16.65
2023-04-11T11:41:49.378Z,16.23
2023-04-11T11:44:28.175Z,16.15
2023-04-11T11:47:02.336Z,19.02
2023-04-11T11:49:56.582Z,16.77
2023-04-11T11:52:33.891Z,19.90
2023-04-11T11:55:03.473Z,16.77
2023-04-11T11:57:31.941Z,16.08
2023-04-11T12:00:01.402Z,13.62
2023-04-11T12:02:29.312Z,14.55
2023-04-11T12:05:00.109Z,14.90
2023-04-11T12:07:32.727Z,15.25
2023-04-11T12:10:02.009Z,14.15
2023-04-11T12:12:36.914Z,13.30
2023-04-11T12:15:14.886Z,14.20
2023-04-11T12:17:43.072Z,13.73
2023-04-11T12:20:11.251Z,16.83
2023-04-11T12:22:38.929Z,17.08
2023-04-11T12:25:08.103Z,15.93
2023-04-11T12:27:40.293Z,18.77
2023-04-11T12:30:08.877Z,14.55
2023-04-11T12:32:36.950Z,14.70
2023-04-11T12:35:05.629Z,12.75
2023-04-11T12:37:33.604Z,18.15
2023-04-11T12:40:01.781Z,13.32
2023-04-11T12:42:29.211Z,13.77
2023-04-11T12:44:56.603Z,11.68
2023-04-11T12:47:24.355Z,11.52
2023-04-11T12:49:51.993Z,10.63
2023-04-11T12:52:19.352Z,9.25
2023-04-11T12:54:47.090Z,8.05
2023-04-11T12:57:14.597Z,7.85
2023-04-11T12:59:42.080Z,9.35
2023-04-11T13:02:09.876Z,10.98
2023-04-11T13:04:37.392Z,9.80
2023-04-11T13:07:04.924Z,10.82
2023-04-11T13:09:34.271Z,12.45
2023-04-11T13:12:01.993Z,8.68
2023-04-11T13:14:29.790Z,9.70
2023-04-11T13:16:57.612Z,7.18
2023-04-11T13:19:25.071Z,12.35
2023-04-11T13:21:52.706Z,7.82
2023-04-11T13:24:20.333Z,8.85
2023-04-11T13:26:47.715Z,8.60
2023-04-11T13:29:15.170Z,8.43
2023-04-11T13:31:42.993Z,8.27
2023-04-11T13:34:10.830Z,11.70
2023-04-11T13:36:38.315Z,9.52
2023-04-11T13:39:06.083Z,7.62
2023-04-11T13:41:33.454Z,8.35
2023-04-11T13:44:00.861Z,9.05
2023-04-11T13:46:28.590Z,8.43
2023-04-11T13:48:56.283Z,7.93
2023-04-11T13:51:23.964Z,8.25
2023-04-11T13:53:51.633Z,8.65
2023-04-11T13:56:20.535Z,7.75
2023-04-11T13:58:47.963Z,8.10
2023-04-11T14:01:15.623Z,8.63
2023-04-11T14:03:44.809Z,7.12
2023-04-11T14:06:12.402Z,6.18
2023-04-11T14:08:40.066Z,12.32
2023-04-11T14:11:07.834Z,4.20
2023-04-11T14:13:35.234Z,4.35
2023-04-11T14:16:08.921Z,5.12
2023-04-11T14:18:37.094Z,6.32
2023-04-11T14:21:08.198Z,5.55
2023-04-11T14:23:35.872Z,6.60
2023-04-11T14:26:03.660Z,6.00
2023-04-11T14:28:31.104Z,5.82
2023-04-11T14:30:58.591Z,9.68
2023-04-11T14:33:27.093Z,7.85
2023-04-11T14:35:54.544Z,6.47
2023-04-11T14:38:21.972Z,9.68
2023-04-11T14:40:49.693Z,6.80
2023-04-11T14:43:17.092Z,6.55
2023-04-11T14:45:44.489Z,6.78
2023-04-11T14:48:12.223Z,8.85
2023-04-11T14:50:39.759Z,6.22
2023-04-11T14:53:07.231Z,8.23
2023-04-11T14:55:34.897Z,9.93
2023-04-11T14:58:02.353Z,8.23
2023-04-11T15:00:29.765Z,7.87
2023-04-11T15:02:57.775Z,8.07
2023-04-11T15:05:25.706Z,9.65
2023-04-11T15:07:53.178Z,10.68
2023-04-11T15:10:22.848Z,12.43
2023-04-11T15:12:50.751Z,10.23
2023-04-11T15:15:18.441Z,9.90
2023-04-11T15:17:47.665Z,11.30
2023-04-11T15:20:15.973Z,14.32
2023-04-11T15:22:45.084Z,12.27
2023-04-11T15:25:14.906Z,13.55
2023-04-11T15:27:42.719Z,12.70
2023-04-11T15:30:11.299Z,11.75
2023-04-11T15:32:43.695Z,15.80
2023-04-11T15:37:38.883Z,14.40
2023-04-11T15:40:07.805Z,14.50
2023-04-11T15:42:36.931Z,14.90
2023-04-11T15:45:05.177Z,17.70
2023-04-11T15:47:33.869Z,17.25
2023-04-11T15:50:04.083Z,16.35
2023-04-11T15:52:31.783Z,15.18
2023-04-11T15:54:59.222Z,14.27
2023-04-11T15:57:28.291Z,17.02
2023-04-11T15:59:56.061Z,16.85
2023-04-11T16:02:23.925Z,13.38
2023-04-11T16:04:54.043Z,12.55
2023-04-11T16:07:23.306Z,14.70
2023-04-11T16:09:50.850Z,13.02
2023-04-11T16:12:18.698Z,19.12
2023-04-11T16:14:46.381Z,16.83
2023-04-11T16:17:18.944Z,15.30
2023-04-11T16:19:47.287Z,14.90
2023-04-11T16:22:14.966Z,15.98
2023-04-11T16:24:42.412Z,12.88
2023-04-11T16:27:10.094Z,14.95
2023-04-11T16:29:37.570Z,10.82
2023-04-11T16:32:05.118Z,14.38
2023-04-11T16:34:32.930Z,8.65
2023-04-11T16:37:01.237Z,11.55
2023-04-11T16:39:28.675Z,10.95
2023-04-11T16:41:57.219Z,11.15
2023-04-11T16:44:24.563Z,11.85
2023-04-11T16:46:51.993Z,10.95
2023-04-11T16:49:19.718Z,11.93
2023-04-11T16:51:47.188Z,11.77
2023-04-11T16:54:15.041Z,10.82
2023-04-11T16:56:43.184Z,11.63
2023-04-11T16:59:12.225Z,10.30
2023-04-11T17:01:41.107Z,12.52
2023-04-11T17:04:09.411Z,11.82
2023-04-11T17:06:37.083Z,11.60
2023-04-11T17:09:06.430Z,10.65
2023-04-11T17:11:35.646Z,12.45
2023-04-11T17:14:04.150Z,11.00
2023-04-11T17:16:31.671Z,12.23
2023-04-11T17:18:59.303Z,13.20
2023-04-11T17:21:27.407Z,13.18
2023-04-11T17:23:54.801Z,11.40
2023-04-11T17:26:22.514Z,13.70
2023-04-11T17:28:49.993Z,16.15
2023-04-11T17:31:18.759Z,13.07
2023-04-11T17:33:46.546Z,12.73
2023-04-11T17:36:14.153Z,14.07
2023-04-11T17:38:43.351Z,14.45
2023-04-11T17:41:14.937Z,13.18
2023-04-11T17:43:43.601Z,12.03
2023-04-11T17:46:12.405Z,14.32
2023-04-11T17:48:39.996Z,11.65
2023-04-11T17:51:07.445Z,11.45
2023-04-11T17:53:35.136Z,10.65
2023-04-11T17:56:04.610Z,11.50
2023-04-11T17:58:32.195Z,9.85
2023-04-11T18:00:59.897Z,10.70
2023-04-11T18:03:28.241Z,11.88
2023-04-11T18:05:56.669Z,9.32
2023-04-11T18:08:39.177Z,10.00
2023-04-11T18:11:14.347Z,7.90
2023-04-11T18:13:44.652Z,7.78
2023-04-11T18:16:12.404Z,7.10
2023-04-11T18:18:40.131Z,6.57
2023-04-11T18:21:08.126Z,6.70
2023-04-11T18:23:35.873Z,6.60
2023-04-11T18:26:03.663Z,8.07
2023-04-11T18:28:31.043Z,6.30
2023-04-11T18:30:58.543Z,6.75
2023-04-11T18:33:26.295Z,7.78
2023-04-11T18:35:53.712Z,5.28
2023-04-11T18:38:21.248Z,6.03
2023-04-11T18:40:49.478Z,5.37
2023-04-11T18:43:17.655Z,8.18
2023-04-11T18:45:45.265Z,5.90
2023-04-11T18:48:14.046Z,5.87
2023-04-11T18:50:43.007Z,7.12
2023-04-11T18:55:40.657Z,6.93
2023-04-11T18:58:09.763Z,5.20
2023-04-11T19:00:39.637Z,7.87
2023-04-11T19:03:15.140Z,5.62
2023-04-11T19:05:44.057Z,6.12
2023-04-11T19:08:11.901Z,6.18
2023-04-11T19:10:39.303Z,6.25
2023-04-11T19:13:06.941Z,5.25
2023-04-11T19:15:34.673Z,7.78
2023-04-11T19:18:02.441Z,6.55
2023-04-11T19:20:29.940Z,6.05
2023-04-11T19:22:57.885Z,7.87
2023-04-11T19:25:25.599Z,6.10
2023-04-11T19:27:53.082Z,5.93
2023-04-11T19:30:21.034Z,5.12
2023-04-11T19:32:48.656Z,6.25
2023-04-11T19:35:17.141Z,5.87
2023-04-11T19:37:44.839Z,7.07
2023-04-11T19:40:13.766Z,7.55
2023-04-11T19:42:42.146Z,10.50
2023-04-11T19:45:11.494Z,9.63
2023-04-11T19:47:40.260Z,7.35
2023-04-11T19:50:13.213Z,5.90
2023-04-11T19:52:42.202Z,20.55
2023-04-11T19:55:11.545Z,8.35
2023-04-11T19:57:39.093Z,6.45
2023-04-11T20:00:17.054Z,6.40
2023-04-11T20:02:46.708Z,5.93
2023-04-11T20:05:16.473Z,5.75
2023-04-11T20:07:45.152Z,8.00
2023-04-11T20:10:14.140Z,6.45
2023-04-11T20:12:41.671Z,7.80
2023-04-11T20:15:09.594Z,5.40
2023-04-11T20:17:37.333Z,6.37
2023-04-11T20:20:06.032Z,3.58
2023-04-11T20:22:33.526Z,4.03
2023-04-11T20:25:01.432Z,4.35
2023-04-11T20:27:28.841Z,5.62
2023-04-11T20:29:56.764Z,3.83
2023-04-11T20:32:24.577Z,3.28
2023-04-11T20:34:52.246Z,5.22
2023-04-11T20:37:22.596Z,2.03
2023-04-11T20:39:51.538Z,2.97
2023-04-11T20:42:20.445Z,3.65
2023-04-11T20:44:47.974Z,3.05
2023-04-11T20:47:15.632Z,4.82
2023-04-11T20:49:45.648Z,2.62
2023-04-11T20:52:13.279Z,2.62
2023-04-11T20:54:41.039Z,2.75
2023-04-11T20:57:08.496Z,3.35
2023-04-11T20:59:38.086Z,4.22
2023-04-11T21:02:05.938Z,2.72
2023-04-11T21:04:33.581Z,3.10
2023-04-11T21:07:01.405Z,3.10
2023-04-11T21:09:29.228Z,2.37
2023-04-11T21:11:56.632Z,3.25
2023-04-11T21:14:24.326Z,2.50
2023-04-11T21:16:52.296Z,3.05
2023-04-11T21:19:19.750Z,3.62
2023-04-11T21:21:47.149Z,2.33
2023-04-11T21:24:14.835Z,2.65
2023-04-11T21:26:42.496Z,3.67
2023-04-11T21:29:12.057Z,2.22
2023-04-11T21:31:39.730Z,2.37
2023-04-11T21:34:07.181Z,2.47
2023-04-11T21:36:34.688Z,2.50
2023-04-11T21:39:02.401Z,5.30
2023-04-11T21:41:29.872Z,4.37
2023-04-11T21:43:57.376Z,4.43
2023-04-11T21:46:25.588Z,2.85
2023-04-11T21:48:53.066Z,1.90
2023-04-11T21:51:20.635Z,3.55
2023-04-11T21:53:48.277Z,1.70
2023-04-11T21:56:15.976Z,1.85
2023-04-11T21:58:43.393Z,2.05
2023-04-11T22:01:11.733Z,2.55
2023-04-11T22:03:42.177Z,3.17
2023-04-11T22:06:10.435Z,2.47
2023-04-11T22:08:42.203Z,4.10
2023-04-11T22:11:14.628Z,2.20
2023-04-11T22:13:46.251Z,3.15
2023-04-11T22:16:14.261Z,1.65
2023-04-11T22:18:47.455Z,4.32
2023-04-11T22:21:21.934Z,2.10
2023-04-11T22:23:54.462Z,3.45
2023-04-11T22:26:34.877Z,3.95
2023-04-11T22:29:05.630Z,2.92
2023-04-11T22:31:38.683Z,2.28
2023-04-11T22:34:08.839Z,3.40
2023-04-11T22:36:36.929Z,2.10
2023-04-11T22:39:07.267Z,3.87
2023-04-11T22:41:35.965Z,2.35
2023-04-11T22:44:04.006Z,3.53
2023-04-11T22:46:33.962Z,2.35
2023-04-11T22:49:01.626Z,2.37
2023-04-11T22:51:30.184Z,2.40
2023-04-11T22:53:58.058Z,1.92
2023-04-11T22:56:25.734Z,3.28
2023-04-11T22:58:53.395Z,3.12
2023-04-11T23:01:21.058Z,2.80
2023-04-11T23:03:48.479Z,3.80
2023-04-11T23:06:16.466Z,3.92
2023-04-11T23:08:43.887Z,2.53
2023-04-11T23:11:11.484Z,5.07
2023-04-11T23:13:39.188Z,1.33
2023-04-11T23:16:09.032Z,3.42
2023-04-11T23:18:36.641Z,2.45
2023-04-11T23:21:04.404Z,6.90
2023-04-11T23:23:31.763Z,2.95
2023-04-11T23:25:59.977Z,3.05
2023-04-11T23:28:29.058Z,3.12
2023-04-11T23:30:56.612Z,5.32
2023-04-11T23:33:25.679Z,3.33
2023-04-11T23:35:53.474Z,3.78
2023-04-11T23:38:21.489Z,4.32
2023-04-11T23:40:49.318Z,3.83
2023-04-11T23:43:16.999Z,3.53
2023-04-11T23:45:44.490Z,4.85
2023-04-11T23:48:11.938Z,3.95
2023-04-11T23:50:39.592Z,3.85
2023-04-11T23:53:06.978Z,3.80
2023-04-11T23:55:35.178Z,3.10
2023-04-11T23:58:03.706Z,2.37
